Time;durP1;ratioP1;P1;durP2;ratioP2;P2;SDS_P1;SDS_P2;PMS_P1;PMS_P2;Temp;Humidity;BMP_temperature;BMP_pressure;BME280_temperature;BME280_humidity;BME280_pressure;Samples;Min_cycle;Max_cycle;Signal;HPM_P1;HPM_P2
2021/11/19 00:00:15;;;;;;;3.28;2.20;;;;;;;25.75;19.82;98703.34;5030613;28;20040;-86
2021/11/19 00:02:42;;;;;;;4.05;2.30;;;;;;;26.13;19.31;98701.81;5026243;28;20038;-86
2021/11/19 00:05:09;;;;;;;3.38;2.10;;;;;;;26.41;18.77;98695.59;5020862;28;20056;-86
2021/11/19 00:07:35;;;;;;;7.80;3.33;;;;;;;26.11;19.21;98709.13;5027892;28;20060;-86
2021/11/19 00:10:01;;;;;;;3.08;1.95;;;;;;;25.96;19.21;98700.13;5031348;28;20029;-86
2021/11/19 00:12:27;;;;;;;2.50;2.10;;;;;;;26.04;19.26;98693.91;5031979;28;20481;-87
2021/11/19 00:14:53;;;;;;;3.67;1.95;;;;;;;26.43;18.74;98700.78;5026579;28;20038;-86
2021/11/19 00:17:19;;;;;;;4.13;2.15;;;;;;;26.14;19.00;98705.44;5022718;28;20030;-86
2021/11/19 00:19:46;;;;;;;3.65;2.00;;;;;;;25.87;19.27;98711.16;5026306;28;20101;-87
2021/11/19 00:22:16;;;;;;;4.05;2.42;;;;;;;26.40;18.90;98710.09;5027032;28;20025;-86
2021/11/19 00:24:43;;;;;;;2.92;2.17;;;;;;;26.57;18.41;98712.53;5022049;28;20042;-86
2021/11/19 00:27:11;;;;;;;4.28;1.95;;;;;;;26.24;19.05;98696.75;5030465;28;20105;-86
2021/11/19 00:29:38;;;;;;;3.72;2.03;;;;;;;26.27;18.98;98703.56;5027678;28;20029;-86
2021/11/19 00:32:05;;;;;;;2.83;1.80;;;;;;;26.48;18.82;98705.91;5033218;28;20104;-86
2021/11/19 00:34:31;;;;;;;4.97;2.38;;;;;;;26.37;19.07;98708.94;5030276;28;20041;-86
2021/11/19 00:36:58;;;;;;;3.63;2.10;;;;;;;26.35;18.95;98713.44;5025004;28;20460;-86
2021/11/19 00:39:26;;;;;;;3.40;1.58;;;;;;;26.02;19.28;98706.84;5029784;28;20038;-86
2021/11/19 00:41:53;;;;;;;5.85;2.22;;;;;;;25.95;19.13;98704.19;5026878;28;20037;-86
2021/11/19 00:44:21;;;;;;;3.15;1.70;;;;;;;25.98;19.06;98692.84;5035115;28;20095;-86
2021/11/19 00:46:48;;;;;;;3.05;1.65;;;;;;;26.56;18.52;98690.44;5033313;28;20025;-86
2021/11/19 00:49:17;;;;;;;4.47;1.95;;;;;;;26.32;18.90;98694.59;5032577;28;20079;-86
2021/11/19 00:51:48;;;;;;;4.22;1.80;;;;;;;26.35;18.93;98686.06;5029261;28;20041;-86
2021/11/19 00:54:15;;;;;;;2.08;1.80;;;;;;;26.66;18.56;98681.75;5029862;28;20033;-86
2021/11/19 00:56:46;;;;;;;3.75;1.45;;;;;;;26.51;19.09;98688.91;5035189;28;20038;-86
2021/11/19 00:59:14;;;;;;;3.63;1.83;;;;;;;25.62;19.63;98683.50;5020636;28;20053;-86
2021/11/19 01:01:49;;;;;;;3.80;2.15;;;;;;;25.69;19.58;98665.69;5029484;28;20042;-86
2021/11/19 01:04:15;;;;;;;1.70;1.33;;;;;;;25.51;20.00;98674.44;5025233;28;20030;-86
2021/11/19 01:06:42;;;;;;;4.90;2.25;;;;;;;25.53;19.73;98657.97;5033903;28;20421;-86
2021/11/19 01:09:13;;;;;;;3.42;1.60;;;;;;;26.12;19.15;98665.66;5033857;28;20505;-86
2021/11/19 01:11:41;;;;;;;4.10;1.70;;;;;;;25.40;19.96;98659.78;5031400;28;20037;-86
2021/11/19 01:14:17;;;;;;;2.50;1.45;;;;;;;25.54;19.89;98667.19;5027936;28;20037;-86
2021/11/19 01:16:48;;;;;;;4.90;1.70;;;;;;;26.39;19.01;98666.28;5025389;28;20025;-86
2021/11/19 01:19:21;;;;;;;2.63;1.50;;;;;;;26.69;18.67;98669.63;5032547;28;20025;-86
2021/11/19 01:21:54;;;;;;;2.97;1.52;;;;;;;26.39;19.21;98669.09;5027434;28;20053;-86
2021/11/19 01:24:21;;;;;;;3.55;1.50;;;;;;;26.81;18.60;98661.72;5032353;28;20037;-86
2021/11/19 01:26:48;;;;;;;2.25;1.50;;;;;;;26.01;19.78;98654.59;5030206;28;20506;-86
2021/11/19 01:29:16;;;;;;;2.88;1.63;;;;;;;26.27;19.34;98661.31;5033686;28;20104;-86
2021/11/19 01:31:49;;;;;;;3.97;1.70;;;;;;;26.64;19.00;98655.25;5028927;28;20042;-86
2021/11/19 01:34:16;;;;;;;3.10;2.00;;;;;;;26.36;19.65;98655.91;5024975;28;20048;-86
2021/11/19 01:36:43;;;;;;;1.90;1.20;;;;;;;26.56;19.24;98654.63;5032530;28;20059;-86
2021/11/19 01:39:14;;;;;;;1.65;1.23;;;;;;;24.81;21.14;98656.75;5028243;28;20039;-86
2021/11/19 01:41:44;;;;;;;1.40;1.30;;;;;;;25.52;20.47;98641.50;5029207;28;20029;-86
2021/11/19 01:44:17;;;;;;;1.48;1.38;;;;;;;26.06;19.92;98634.41;5032877;28;20034;-87
2021/11/19 01:46:47;;;;;;;3.22;1.42;;;;;;;25.58;20.31;98649.00;5028932;28;20490;-86
2021/11/19 01:49:13;;;;;;;3.13;1.60;;;;;;;25.29;20.80;98645.13;5024376;28;20057;-86
2021/11/19 01:51:55;;;;;;;3.38;1.60;;;;;;;25.26;20.96;98648.78;5030839;28;20040;-86
2021/11/19 01:54:29;;;;;;;3.72;2.00;;;;;;;24.60;21.75;98662.66;5029996;28;20040;-86
2021/11/19 01:57:16;;;;;;;2.28;1.60;;;;;;;24.34;22.37;98666.28;5025229;28;20564;-87
2021/11/19 01:59:48;;;;;;;3.83;1.92;;;;;;;24.60;22.00;98665.47;5030676;28;20056;-86
2021/11/19 02:02:20;;;;;;;3.42;1.70;;;;;;;25.08;21.28;98657.53;5030068;28;20112;-87
2021/11/19 02:04:54;;;;;;;3.55;1.67;;;;;;;25.02;21.41;98653.59;5025637;28;20033;-86
2021/11/19 02:07:26;;;;;;;4.75;2.00;;;;;;;25.02;21.51;98641.59;5031708;28;20029;-86
2021/11/19 02:10:21;;;;;;;4.85;1.50;;;;;;;24.94;21.41;98635.28;5026833;28;20029;-86
2021/11/19 02:13:04;;;;;;;3.33;1.80;;;;;;;24.88;21.45;98625.75;5028948;28;20033;-86
2021/11/19 02:15:55;;;;;;;3.38;1.67;;;;;;;25.63;20.62;98634.47;5030256;28;20037;-86
2021/11/19 02:18:42;;;;;;;4.38;1.80;;;;;;;25.80;20.51;98629.72;5027225;28;20087;-86
2021/11/19 02:21:17;;;;;;;2.53;1.60;;;;;;;25.83;20.11;98624.03;5028500;28;20148;-86
2021/11/19 02:23:58;;;;;;;2.15;1.30;;;;;;;26.25;20.04;98624.38;5033538;28;20037;-86
2021/11/19 02:26:49;;;;;;;4.35;1.80;;;;;;;26.19;20.04;98618.44;5032620;28;20052;-86
2021/11/19 02:29:16;;;;;;;2.03;1.63;;;;;;;26.01;20.17;98618.03;5029748;28;20037;-86
2021/11/19 02:31:53;;;;;;;3.88;2.15;;;;;;;26.00;20.09;98614.41;5025230;28;20037;-86
2021/11/19 02:34:22;;;;;;;3.78;1.63;;;;;;;25.62;20.72;98601.94;5026076;28;20056;-87
2021/11/19 02:37:03;;;;;;;3.42;2.15;;;;;;;25.60;20.59;98609.22;5023632;28;20046;-87
2021/11/19 02:39:33;;;;;;;3.53;1.50;;;;;;;26.07;19.92;98614.25;5025818;28;20037;-86
2021/11/19 02:42:15;;;;;;;;;;;;;;;24.81;21.44;98609.00;5030899;28;20036;-86
2021/11/19 02:44:42;;;;;;;3.45;1.60;;;;;;;25.87;20.21;98602.22;5031881;28;19925;-86
2021/11/19 02:47:13;;;;;;;3.30;1.75;;;;;;;26.02;20.34;98609.13;5030275;28;20041;-86
2021/11/19 02:49:40;;;;;;;2.53;1.40;;;;;;;24.76;21.68;98609.50;5028650;28;20041;-86
2021/11/19 02:52:15;;;;;;;4.50;1.75;;;;;;;24.65;21.98;98615.25;5026776;28;20029;-86
2021/11/19 02:54:41;;;;;;;2.10;1.70;;;;;;;25.64;20.81;98609.94;5031390;28;20061;-86
2021/11/19 02:57:08;;;;;;;1.95;1.55;;;;;;;25.78;20.62;98606.84;5032939;28;20508;-86
2021/11/19 02:59:35;;;;;;;2.50;1.65;;;;;;;26.58;19.59;98593.00;5029645;28;20033;-86
2021/11/19 03:02:09;;;;;;;3.97;1.75;;;;;;;26.56;19.64;98600.31;5025945;28;20115;-86
2021/11/19 03:04:40;;;;;;;3.47;1.50;;;;;;;25.91;20.14;98597.31;5032916;28;20040;-86
2021/11/19 03:07:06;;;;;;;2.78;1.63;;;;;;;25.78;20.77;98595.59;5048816;28;20455;-86
2021/11/19 03:09:36;;;;;;;3.28;1.48;;;;;;;25.49;21.01;98594.56;5032169;28;20034;-86
2021/11/19 03:12:05;;;;;;;1.65;1.45;;;;;;;25.15;21.69;98589.97;5029046;28;20045;-87
2021/11/19 03:14:32;;;;;;;2.65;1.52;;;;;;;25.10;21.73;98589.66;5031522;28;20026;-86
2021/11/19 03:16:59;;;;;;;2.30;1.40;;;;;;;25.44;21.56;98581.81;5020333;28;20433;-86
2021/11/19 03:19:25;;;;;;;1.45;1.35;;;;;;;25.05;21.85;98581.72;5031197;28;20370;-86
2021/11/19 03:21:52;;;;;;;2.88;1.40;;;;;;;25.45;21.27;98582.59;5029972;28;20100;-86
2021/11/19 03:24:19;;;;;;;1.77;1.25;;;;;;;25.34;21.27;98583.56;5028213;28;20397;-86
2021/11/19 03:26:47;;;;;;;2.83;1.40;;;;;;;24.31;22.45;98578.09;5030979;28;20041;-87
2021/11/19 03:29:14;;;;;;;2.92;1.50;;;;;;;24.97;22.04;98574.66;5025969;28;20044;-86
2021/11/19 03:31:41;;;;;;;3.42;1.55;;;;;;;25.19;21.78;98576.63;5028656;28;20030;-86
2021/11/19 03:34:09;;;;;;;4.88;2.22;;;;;;;24.74;22.12;98561.34;5027459;28;20033;-87
2021/11/19 03:36:38;;;;;;;1.92;1.65;;;;;;;23.91;23.22;98565.00;5027556;28;20047;-87
2021/11/19 03:39:06;;;;;;;3.50;1.73;;;;;;;24.83;22.39;98558.84;5031210;28;20039;-86
2021/11/19 03:41:36;;;;;;;2.97;1.20;;;;;;;25.06;22.03;98555.22;5031192;28;20033;-86
2021/11/19 03:44:07;;;;;;;2.00;1.58;;;;;;;25.36;21.63;98555.84;5025562;28;20037;-86
2021/11/19 03:46:47;;;;;;;2.65;1.58;;;;;;;25.10;21.71;98550.31;5028027;28;20065;-86
2021/11/19 03:49:13;;;;;;;2.15;1.60;;;;;;;25.57;21.34;98551.03;5031199;28;20035;-86
2021/11/19 03:52:11;;;;;;;2.80;1.70;;;;;;;25.39;21.41;98552.16;5026980;28;20041;-86
2021/11/19 03:54:39;;;;;;;3.08;1.67;;;;;;;25.71;21.16;98556.38;5025434;28;20032;-86
2021/11/19 03:57:07;;;;;;;2.95;1.88;;;;;;;24.62;22.47;98550.75;5027651;28;20033;-86
2021/11/19 03:59:33;;;;;;;2.88;2.05;;;;;;;23.38;24.28;98560.09;5028472;28;20108;-86
2021/11/19 04:01:59;;;;;;;1.77;1.45;;;;;;;24.24;23.01;98569.00;5026024;28;22498;-86
2021/11/19 04:04:30;;;;;;;2.45;1.50;;;;;;;24.86;22.48;98557.97;5034836;28;20091;-86
2021/11/19 04:06:59;;;;;;;2.08;1.45;;;;;;;24.96;22.08;98550.56;5035505;28;20033;-86
2021/11/19 04:09:26;;;;;;;3.10;1.20;;;;;;;25.15;21.79;98553.44;5029902;28;20034;-86
2021/11/19 04:11:53;;;;;;;1.55;1.10;;;;;;;24.62;22.52;98554.31;5035860;28;20026;-86
2021/11/19 04:14:19;;;;;;;1.60;1.33;;;;;;;24.70;22.41;98558.63;5034555;28;20029;-86
2021/11/19 04:16:49;;;;;;;1.35;1.02;;;;;;;25.23;21.87;98549.25;5032108;28;20507;-86
2021/11/19 04:19:18;;;;;;;2.20;1.10;;;;;;;24.59;22.49;98548.78;5027146;28;20045;-86
2021/11/19 04:21:46;;;;;;;2.17;1.38;;;;;;;24.18;23.18;98553.84;5033811;28;20042;-86
2021/11/19 04:24:18;;;;;;;1.67;1.20;;;;;;;24.56;22.54;98561.66;5027131;28;20183;-86
2021/11/19 04:26:45;;;;;;;1.55;1.10;;;;;;;24.98;21.99;98554.53;5034330;28;20025;-87
2021/11/19 04:29:11;;;;;;;1.40;1.13;;;;;;;25.41;21.61;98554.53;5028658;28;20033;-86
2021/11/19 04:31:37;;;;;;;1.20;1.10;;;;;;;24.51;22.59;98552.91;5033253;28;20052;-86
2021/11/19 04:34:06;;;;;;;2.35;1.48;;;;;;;23.44;24.12;98552.00;5028115;28;20052;-86
2021/11/19 04:36:32;;;;;;;1.95;0.82;;;;;;;24.10;23.36;98550.34;5029250;28;20525;-86
2021/11/19 04:38:59;;;;;;;1.38;1.00;;;;;;;24.01;23.40;98552.84;5033443;28;20040;-86
2021/11/19 04:41:25;;;;;;;1.00;0.90;;;;;;;24.37;22.99;98551.13;5023602;28;20044;-86
2021/11/19 04:43:52;;;;;;;1.20;1.10;;;;;;;24.24;23.29;98552.16;5033819;28;20501;-87
2021/11/19 04:46:18;;;;;;;0.77;0.75;;;;;;;23.80;23.65;98548.34;5033561;28;20053;-86
2021/11/19 04:48:45;;;;;;;1.30;0.85;;;;;;;24.18;23.54;98553.84;5033632;28;20045;-86
2021/11/19 04:51:24;;;;;;;1.95;1.00;;;;;;;24.82;22.85;98539.59;5034599;28;20030;-86
2021/11/19 04:53:50;;;;;;;1.13;1.00;;;;;;;25.21;22.58;98534.84;5029726;28;20037;-86
2021/11/19 04:56:17;;;;;;;1.20;1.00;;;;;;;24.07;23.90;98551.19;5031402;28;20025;-86
2021/11/19 04:58:44;;;;;;;1.70;1.23;;;;;;;23.79;24.50;98543.13;5029286;28;20099;-87
2021/11/19 05:01:17;;;;;;;0.95;0.90;;;;;;;25.02;22.82;98529.97;5028788;28;20441;-86
2021/11/19 05:03:44;;;;;;;2.90;0.90;;;;;;;25.65;22.15;98527.19;5029617;28;20038;-86
2021/11/19 05:06:11;;;;;;;1.40;0.80;;;;;;;26.22;21.39;98533.13;5028004;28;20080;-86
2021/11/19 05:08:37;;;;;;;1.25;0.90;;;;;;;25.36;22.45;98536.16;5029834;28;20103;-86
2021/11/19 05:11:06;;;;;;;1.20;0.65;;;;;;;24.35;23.76;98538.75;5031913;28;20044;-86
2021/11/19 05:13:34;;;;;;;1.05;0.70;;;;;;;25.02;22.97;98521.56;5025100;28;20033;-87
2021/11/19 05:16:03;;;;;;;1.27;0.60;;;;;;;25.60;22.23;98533.31;5031828;28;20041;-86
2021/11/19 05:18:30;;;;;;;1.05;0.70;;;;;;;25.46;22.58;98544.84;5026123;28;20037;-86
2021/11/19 05:20:57;;;;;;;0.60;0.60;;;;;;;25.85;22.02;98550.44;5031156;28;20056;-88
2021/11/19 05:23:24;;;;;;;1.10;0.70;;;;;;;25.93;21.95;98529.34;5029314;28;20037;-87
2021/11/19 05:25:51;;;;;;;1.25;0.70;;;;;;;26.11;21.65;98526.19;5028629;28;20037;-88
2021/11/19 05:28:20;;;;;;;2.05;0.90;;;;;;;26.45;21.51;98524.53;5031995;28;20118;-85
2021/11/19 05:30:46;;;;;;;0.80;0.63;;;;;;;25.39;22.47;98532.47;5029212;28;20037;-86
2021/11/19 05:33:16;;;;;;;0.60;0.50;;;;;;;25.48;22.83;98533.94;5024050;28;20065;-87
2021/11/19 05:35:43;;;;;;;1.27;1.00;;;;;;;25.55;22.60;98536.63;5022201;28;20131;-87
2021/11/19 05:38:10;;;;;;;0.70;0.70;;;;;;;24.46;23.67;98539.34;5029113;28;20049;-88
2021/11/19 05:40:37;;;;;;;1.70;1.00;;;;;;;24.32;24.44;98542.41;5034055;28;20029;-87
2021/11/19 05:43:05;;;;;;;1.35;1.08;;;;;;;24.29;24.19;98541.25;5034696;28;20117;-87
2021/11/19 05:45:33;;;;;;;0.88;0.80;;;;;;;25.06;23.35;98530.72;5034134;28;20036;-88
2021/11/19 05:48:00;;;;;;;1.75;1.00;;;;;;;25.48;22.82;98539.56;5034784;28;20481;-87
2021/11/19 05:50:29;;;;;;;0.93;0.80;;;;;;;25.30;23.25;98548.31;5032536;28;20049;-87
2021/11/19 05:52:59;;;;;;;1.30;0.80;;;;;;;23.99;24.95;98558.09;5030777;28;20022;-86
2021/11/19 05:55:28;;;;;;;0.90;0.90;;;;;;;24.13;24.79;98560.75;5025219;28;20481;-86
2021/11/19 05:57:55;;;;;;;0.80;0.60;;;;;;;23.52;25.64;98559.13;5025804;28;20041;-86
2021/11/19 06:00:25;;;;;;;1.00;0.90;;;;;;;22.39;27.03;98546.97;5027334;28;20092;-87
2021/11/19 06:02:53;;;;;;;0.88;0.88;;;;;;;22.93;26.58;98541.72;5025720;28;20545;-86
2021/11/19 06:05:20;;;;;;;1.17;0.90;;;;;;;22.68;26.78;98544.75;5032821;28;20064;-87
2021/11/19 06:07:47;;;;;;;3.17;0.77;;;;;;;23.49;26.01;98548.72;5027803;28;20562;-88
2021/11/19 06:10:18;;;;;;;1.50;0.80;;;;;;;23.44;25.89;98557.59;5024024;28;20033;-85
2021/11/19 06:12:54;;;;;;;1.10;0.82;;;;;;;24.04;25.13;98564.00;5025654;28;20033;-86
2021/11/19 06:15:28;;;;;;;1.50;0.85;;;;;;;24.76;24.06;98558.13;5028827;28;20102;-88
2021/11/19 06:18:00;;;;;;;1.50;0.80;;;;;;;24.59;24.34;98568.44;5023074;28;20400;-87
2021/11/19 06:20:30;;;;;;;1.95;1.10;;;;;;;23.81;25.46;98571.53;5022514;28;20049;-87
2021/11/19 06:23:02;;;;;;;1.35;1.10;;;;;;;24.05;25.04;98568.41;5018280;28;20044;-87
2021/11/19 06:25:31;;;;;;;1.63;1.20;;;;;;;23.86;25.51;98574.69;5032095;28;20034;-87
2021/11/19 06:28:00;;;;;;;1.85;1.30;;;;;;;24.00;25.11;98582.91;5024731;28;20116;-87
2021/11/19 06:30:27;;;;;;;1.05;0.90;;;;;;;23.78;25.95;98584.41;5022563;28;20021;-87
2021/11/19 06:32:54;;;;;;;1.63;0.88;;;;;;;23.18;26.87;98601.88;5032815;28;20036;-87
2021/11/19 06:35:20;;;;;;;1.35;1.10;;;;;;;23.30;26.68;98597.75;5023689;28;20045;-87
2021/11/19 06:37:47;;;;;;;1.73;1.17;;;;;;;23.44;26.37;98602.44;5031220;28;20544;-87
2021/11/19 06:40:17;;;;;;;2.33;1.33;;;;;;;24.27;25.63;98599.00;5034141;28;20045;-87
2021/11/19 06:42:45;;;;;;;2.25;1.08;;;;;;;24.41;25.37;98602.38;5034219;28;20033;-87
2021/11/19 06:45:14;;;;;;;1.40;1.13;;;;;;;24.18;25.90;98596.72;5015044;28;20045;-86
2021/11/19 06:47:41;;;;;;;1.67;0.98;;;;;;;24.68;25.43;98594.75;5025810;28;20139;-87
2021/11/19 06:50:08;;;;;;;1.98;1.40;;;;;;;24.90;25.16;98592.41;5028896;28;20038;-87
2021/11/19 06:52:35;;;;;;;2.65;1.10;;;;;;;24.50;25.85;98608.28;5031298;28;20513;-87
2021/11/19 06:55:02;;;;;;;3.83;1.10;;;;;;;25.07;25.04;98601.75;5033289;28;20025;-87
2021/11/19 06:57:28;;;;;;;2.05;1.15;;;;;;;23.69;26.65;98609.34;5032357;28;20037;-87
2021/11/19 06:59:54;;;;;;;2.72;1.77;;;;;;;23.58;27.32;98597.47;5030803;28;20037;-87
2021/11/19 07:02:20;;;;;;;3.42;1.80;;;;;;;23.21;28.14;98598.25;5014299;28;20061;-87
2021/11/19 07:04:46;;;;;;;2.95;1.25;;;;;;;23.07;28.76;98595.59;5031364;28;20392;-87
2021/11/19 07:07:13;;;;;;;3.35;1.20;;;;;;;24.28;26.77;98592.16;5054082;28;20037;-87
2021/11/19 07:09:40;;;;;;;2.00;0.93;;;;;;;24.19;26.58;98594.72;5034923;28;20030;-87
2021/11/19 07:12:09;;;;;;;1.55;1.02;;;;;;;24.14;26.61;98595.19;5033695;28;20607;-86
2021/11/19 07:14:36;;;;;;;3.33;1.55;;;;;;;24.04;27.15;98589.25;5014033;28;20057;-87
2021/11/19 07:17:05;;;;;;;2.55;1.40;;;;;;;24.09;27.18;98592.84;5014399;28;20041;-87
2021/11/19 07:19:32;;;;;;;1.45;1.15;;;;;;;23.67;27.81;98600.56;5019841;28;20033;-87
2021/11/19 07:21:58;;;;;;;1.40;1.08;;;;;;;23.57;28.19;98590.25;5021394;28;20050;-87
2021/11/19 07:24:25;;;;;;;2.15;1.35;;;;;;;23.91;27.34;98604.28;5024317;28;20097;-88
2021/11/19 07:26:51;;;;;;;1.63;1.15;;;;;;;24.12;27.46;98606.84;5021655;28;20432;-87
2021/11/19 07:29:17;;;;;;;2.28;1.50;;;;;;;23.01;29.04;98608.44;5025588;28;20042;-87
2021/11/19 07:31:43;;;;;;;2.17;1.38;;;;;;;22.48;29.64;98610.84;5013823;28;20030;-87
2021/11/19 07:34:09;;;;;;;2.42;1.60;;;;;;;21.83;30.97;98608.81;5017585;28;20041;-87
2021/11/19 07:36:35;;;;;;;2.13;1.50;;;;;;;21.89;31.40;98604.44;5022115;28;20029;-87
2021/11/19 07:39:03;;;;;;;1.65;1.40;;;;;;;22.66;29.70;98612.34;5032270;28;20064;-87
2021/11/19 07:41:29;;;;;;;1.95;1.20;;;;;;;23.33;28.64;98596.94;5023103;28;20042;-87
2021/11/19 07:43:55;;;;;;;2.90;1.75;;;;;;;22.73;29.72;98597.50;5028011;28;20481;-87
2021/11/19 07:46:26;;;;;;;2.30;1.67;;;;;;;23.25;29.17;98601.81;5033391;28;20033;-87
2021/11/19 07:48:54;;;;;;;3.00;1.70;;;;;;;22.87;29.29;98602.19;5032504;28;20033;-87
2021/11/19 07:51:24;;;;;;;2.63;1.30;;;;;;;23.70;27.90;98594.13;5020658;28;20121;-87
2021/11/19 07:53:51;;;;;;;2.15;1.40;;;;;;;23.45;28.50;98604.84;5013251;28;20025;-87
2021/11/19 07:56:22;;;;;;;1.42;1.10;;;;;;;22.29;29.90;98602.97;5019914;28;20040;-87
2021/11/19 07:58:48;;;;;;;1.65;1.42;;;;;;;21.96;31.14;98598.81;5024670;28;20026;-87
2021/11/19 08:01:15;;;;;;;1.25;1.15;;;;;;;22.88;29.80;98595.38;5026348;28;20033;-87
2021/11/19 08:03:42;;;;;;;2.47;1.30;;;;;;;23.40;28.71;98598.88;5014031;28;20037;-87
2021/11/19 08:06:09;;;;;;;1.95;1.38;;;;;;;22.77;29.57;98589.06;5027566;28;20056;-88
2021/11/19 08:08:37;;;;;;;1.45;1.20;;;;;;;24.10;27.93;98598.03;5032845;28;20366;-87
2021/11/19 08:11:08;;;;;;;1.98;1.77;;;;;;;22.92;29.29;98576.56;5031318;28;20044;-87
2021/11/19 08:13:34;;;;;;;2.38;1.55;;;;;;;22.74;29.63;98589.88;5030284;28;20040;-87
2021/11/19 08:16:00;;;;;;;3.15;1.77;;;;;;;22.26;30.22;98592.63;5028196;28;20034;-87
2021/11/19 08:18:30;;;;;;;1.45;1.35;;;;;;;22.83;30.06;98596.59;5030396;28;20105;-87
2021/11/19 08:20:59;;;;;;;4.40;1.52;;;;;;;23.12;29.65;98595.16;5031648;28;20050;-87
2021/11/19 08:23:33;;;;;;;1.85;1.70;;;;;;;23.25;29.40;98617.81;5033243;28;20053;-87
2021/11/19 08:26:06;;;;;;;2.25;1.63;;;;;;;22.26;30.98;98615.00;5033093;28;20094;-87
2021/11/19 08:28:35;;;;;;;2.13;1.30;;;;;;;23.47;28.75;98624.84;5018188;28;20034;-87
2021/11/19 08:31:03;;;;;;;6.60;1.17;;;;;;;22.95;29.48;98626.09;5031936;28;20049;-87
2021/11/19 08:33:29;;;;;;;1.92;1.30;;;;;;;23.12;29.29;98622.34;5031254;28;20109;-87
2021/11/19 08:35:56;;;;;;;1.45;1.10;;;;;;;22.52;30.63;98618.00;5032650;28;20117;-87
2021/11/19 08:38:25;;;;;;;1.40;1.30;;;;;;;22.31;30.89;98623.75;5032675;28;20040;-87
2021/11/19 08:40:52;;;;;;;1.85;1.17;;;;;;;22.48;30.83;98636.84;5031629;28;20120;-87
2021/11/19 08:43:21;;;;;;;2.55;1.42;;;;;;;23.05;29.84;98640.03;5031981;28;20029;-88
2021/11/19 08:45:48;;;;;;;2.15;1.45;;;;;;;22.80;29.76;98641.44;5030960;28;20033;-87
2021/11/19 08:48:16;;;;;;;1.65;1.40;;;;;;;22.27;30.91;98650.94;5032703;28;20033;-87
2021/11/19 08:50:43;;;;;;;1.10;1.00;;;;;;;23.23;29.30;98634.25;5030279;28;20452;-87
2021/11/19 08:53:12;;;;;;;2.38;1.23;;;;;;;22.87;29.86;98641.38;5036666;28;20393;-87
2021/11/19 08:55:41;;;;;;;1.83;1.25;;;;;;;23.88;28.41;98641.56;5021376;28;20053;-87
2021/11/19 08:58:08;;;;;;;1.40;1.30;;;;;;;22.91;29.73;98628.94;5033222;28;20029;-87
2021/11/19 09:00:37;;;;;;;1.73;1.63;;;;;;;23.46;28.96;98637.25;5034770;28;20033;-87
2021/11/19 09:03:07;;;;;;;1.75;1.10;;;;;;;23.71;28.29;98645.41;5028783;28;20121;-87
2021/11/19 09:05:35;;;;;;;1.90;1.50;;;;;;;23.48;28.71;98632.00;5023951;28;20037;-86
2021/11/19 09:08:03;;;;;;;0.85;0.80;;;;;;;23.51;28.66;98639.59;5035908;28;20041;-87
2021/11/19 09:10:29;;;;;;;1.40;1.13;;;;;;;23.55;28.95;98637.53;5032534;28;20497;-87
2021/11/19 09:12:55;;;;;;;1.50;1.10;;;;;;;22.42;30.20;98640.47;5034445;28;20549;-88
2021/11/19 09:15:23;;;;;;;2.70;1.15;;;;;;;22.62;30.27;98630.38;5016374;28;20482;-87
2021/11/19 09:18:43;;;;;;;1.00;0.90;;;;;;;22.19;30.87;98641.03;5016523;28;20030;-86
2021/11/19 09:21:44;;;;;;;0.93;0.90;;;;;;;23.33;29.01;98638.97;5032055;28;20061;-88
2021/11/19 09:24:20;;;;;;;2.08;1.50;;;;;;;22.78;30.17;98627.84;5030579;28;20049;-88
2021/11/19 09:27:00;;;;;;;1.73;0.93;;;;;;;21.98;31.50;98644.69;5014735;28;20040;-88
2021/11/19 09:29:31;;;;;;;1.58;1.00;;;;;;;22.28;30.57;98651.75;5014684;28;20064;-87
2021/11/19 09:31:57;;;;;;;1.15;0.90;;;;;;;21.86;32.03;98647.16;5012631;28;20034;-87
2021/11/19 09:34:24;;;;;;;1.33;1.17;;;;;;;22.13;31.38;98636.25;5026499;28;20400;-88
2021/11/19 09:36:51;;;;;;;1.58;1.13;;;;;;;21.39;32.39;98630.91;5028458;28;20061;-88
2021/11/19 09:39:21;;;;;;;1.48;1.20;;;;;;;22.41;30.87;98638.88;5028260;28;20477;-87
2021/11/19 09:42:10;;;;;;;2.28;1.60;;;;;;;22.51;30.59;98627.63;5023517;28;20033;-88
2021/11/19 09:45:02;;;;;;;1.83;1.30;;;;;;;23.44;29.33;98633.25;5035370;28;20045;-87
2021/11/19 09:48:02;;;;;;;5.65;1.58;;;;;;;22.39;30.99;98649.69;5026507;28;20038;-87
2021/11/19 09:50:55;;;;;;;2.05;1.55;;;;;;;20.85;33.51;98646.91;5033325;28;20373;-88
2021/11/19 09:53:21;;;;;;;1.48;1.17;;;;;;;21.49;32.46;98639.28;5034788;28;20041;-88
2021/11/19 09:56:44;;;;;;;1.83;1.20;;;;;;;23.14;30.02;98636.75;5034820;28;20041;-88
2021/11/19 09:59:16;;;;;;;3.55;1.75;;;;;;;22.63;30.68;98638.38;5013679;28;20045;-88
2021/11/19 10:02:29;;;;;;;2.17;1.30;;;;;;;22.59;30.77;98647.97;4994027;28;20034;-88
2021/11/19 10:05:06;;;;;;;4.50;2.35;;;;;;;22.54;30.75;98632.38;5021098;28;20057;-87
2021/11/19 10:07:53;;;;;;;6.32;3.65;;;;;;;22.49;30.83;98634.84;5035181;28;20486;-88
2021/11/19 10:10:51;;;;;;;1.90;1.73;;;;;;;22.85;30.57;98632.59;5029053;28;20054;-88
2021/11/19 10:13:32;;;;;;;2.38;1.58;;;;;;;21.40;32.80;98627.69;5019709;28;20076;-89
2021/11/19 10:16:53;;;;;;;1.67;1.58;;;;;;;22.03;31.72;98615.53;5034470;28;20112;-88
2021/11/19 10:19:21;;;;;;;1.23;0.97;;;;;;;22.15;31.59;98633.84;5033496;28;20081;-88
2021/11/19 10:22:07;;;;;;;2.92;2.03;;;;;;;22.18;31.57;98624.63;5016585;28;20054;-88
2021/11/19 10:24:52;;;;;;;4.72;1.92;;;;;;;22.37;31.22;98610.13;5020018;28;20030;-88
2021/11/19 10:27:24;;;;;;;2.75;1.35;;;;;;;23.83;29.15;98609.19;5015795;28;20065;-88
2021/11/19 10:30:15;;;;;;;2.88;1.73;;;;;;;23.52;29.14;98606.75;5019363;28;20050;-88
2021/11/19 10:32:48;;;;;;;2.45;1.23;;;;;;;22.36;31.08;98578.56;5032674;28;20037;-87
2021/11/19 10:35:50;;;;;;;2.15;1.42;;;;;;;22.19;31.57;98593.47;5025041;28;20095;-88
2021/11/19 10:38:54;;;;;;;2.35;1.50;;;;;;;21.32;33.12;98578.66;5030060;28;20478;-88
2021/11/19 10:42:17;;;;;;;2.28;1.30;;;;;;;21.99;32.19;98579.19;5028072;28;20049;-88
2021/11/19 10:45:08;;;;;;;3.22;1.98;;;;;;;22.77;30.62;98570.28;4996820;28;20616;-88
2021/11/19 10:48:04;;;;;;;2.03;1.42;;;;;;;23.25;30.11;98582.19;5012508;28;20034;-88
2021/11/19 10:51:08;;;;;;;2.28;1.58;;;;;;;22.49;31.49;98564.88;5021499;28;20054;-88
2021/11/19 10:54:27;;;;;;;2.60;2.00;;;;;;;22.65;30.65;98563.19;5033059;28;20167;-88
2021/11/19 10:57:18;;;;;;;2.00;1.80;;;;;;;21.89;32.27;98545.72;5017419;28;20044;-88
2021/11/19 11:00:04;;;;;;;3.13;1.60;;;;;;;21.48;33.40;98559.44;5031367;28;20609;-88
2021/11/19 11:02:58;;;;;;;2.60;1.40;;;;;;;23.20;30.54;98576.25;5025287;28;20482;-89
2021/11/19 11:05:32;;;;;;;2.08;1.52;;;;;;;21.93;32.42;98572.44;5014500;28;20037;-88
2021/11/19 11:08:22;;;;;;;2.05;1.85;;;;;;;22.74;31.52;98570.28;5023669;28;20029;-88
2021/11/19 11:10:53;;;;;;;2.53;1.40;;;;;;;23.26;30.16;98566.19;5029048;28;20068;-89
2021/11/19 11:13:34;;;;;;;1.80;1.67;;;;;;;23.76;29.85;98572.00;5018539;28;20056;-88
2021/11/19 11:16:05;;;;;;;3.17;1.67;;;;;;;23.66;29.81;98567.34;5033944;28;20040;-88
2021/11/19 11:18:53;;;;;;;3.03;1.58;;;;;;;22.50;31.50;98574.84;5032751;28;20037;-88
2021/11/19 11:21:30;;;;;;;1.65;1.40;;;;;;;22.10;32.98;98575.56;5033322;28;20080;-89
2021/11/19 11:24:17;;;;;;;3.17;1.92;;;;;;;22.57;33.01;98567.19;5029619;28;20063;-88
2021/11/19 11:26:46;;;;;;;2.70;1.50;;;;;;;22.73;31.84;98574.31;5033320;28;20033;-88
2021/11/19 11:29:18;;;;;;;2.88;1.83;;;;;;;21.85;33.21;98570.88;5033045;28;20029;-88
2021/11/19 11:31:47;;;;;;;2.45;1.42;;;;;;;22.11;33.55;98566.75;5033402;28;20374;-88
2021/11/19 11:34:23;;;;;;;3.08;1.63;;;;;;;22.68;31.77;98550.38;5032015;28;20515;-88
2021/11/19 11:37:17;;;;;;;1.33;1.23;;;;;;;23.78;30.41;98561.97;5031400;28;20021;-88
2021/11/19 11:40:03;;;;;;;2.47;1.75;;;;;;;24.01;29.83;98559.25;5017343;28;20037;-88
2021/11/19 11:42:38;;;;;;;2.70;1.92;;;;;;;23.97;30.11;98566.91;5023253;28;20030;-88
2021/11/19 11:45:39;;;;;;;2.30;1.60;;;;;;;23.43;30.45;98561.63;5033286;28;20060;-89
2021/11/19 11:48:32;;;;;;;1.98;1.77;;;;;;;22.47;32.24;98550.50;5029926;28;20029;-88
2021/11/19 11:50:57;;;;;;;2.08;1.80;;;;;;;22.71;32.13;98563.50;5030521;28;20029;-88
2021/11/19 11:53:39;;;;;;;2.58;1.80;;;;;;;22.82;31.75;98561.44;5031632;28;20038;-89
2021/11/19 11:56:19;;;;;;;3.08;2.00;;;;;;;22.30;32.70;98549.44;5033314;28;20034;-88
2021/11/19 11:59:11;;;;;;;2.90;2.22;;;;;;;22.35;32.67;98562.19;5028240;28;20031;-88